createdAt,value
2023-05-06T00:03:47.043Z,1.00
2023-05-06T00:06:16.549Z,1.00
2023-05-06T00:08:47.966Z,1.00
2023-05-06T00:11:18.670Z,1.00
2023-05-06T00:13:49.205Z,1.00
2023-05-06T00:16:18.675Z,1.00
2023-05-06T00:18:48.201Z,1.00
2023-05-06T00:21:17.536Z,1.00
2023-05-06T00:23:45.743Z,1.00
2023-05-06T00:26:15.111Z,1.00
2023-05-06T00:28:45.711Z,1.00
2023-05-06T00:31:16.298Z,1.00
2023-05-06T00:33:45.150Z,1.00
2023-05-06T00:36:13.322Z,1.00
2023-05-06T00:38:41.451Z,1.00
2023-05-06T00:43:41.042Z,1.00
2023-05-06T00:46:11.907Z,1.00
2023-05-06T00:48:42.540Z,1.00
2023-05-06T00:51:12.526Z,1.00
2023-05-06T00:53:43.773Z,1.00
2023-05-06T00:56:13.384Z,1.00
2023-05-06T00:58:43.465Z,1.00
2023-05-06T01:01:13.307Z,1.00
2023-05-06T01:03:42.773Z,1.00
2023-05-06T01:06:21.355Z,1.00
2023-05-06T01:08:58.968Z,1.00
2023-05-06T01:11:40.860Z,1.00
2023-05-06T01:14:18.815Z,1.00
2023-05-06T01:16:54.712Z,1.00
2023-05-06T01:19:41.749Z,1.00
2023-05-06T01:22:12.584Z,1.00
2023-05-06T01:24:43.773Z,1.00
2023-05-06T01:27:13.772Z,1.00
2023-05-06T01:29:46.114Z,1.00
2023-05-06T01:32:35.984Z,1.00
2023-05-06T01:35:19.343Z,1.00
2023-05-06T01:37:57.031Z,1.00
2023-05-06T01:40:31.783Z,1.00
2023-05-06T01:43:03.094Z,1.00
2023-05-06T01:45:36.085Z,1.00
2023-05-06T01:48:06.752Z,1.00
2023-05-06T01:50:38.148Z,1.00
2023-05-06T01:53:06.329Z,1.00
2023-05-06T01:55:38.205Z,1.00
2023-05-06T01:58:06.523Z,1.00
2023-05-06T02:00:36.266Z,1.00
2023-05-06T02:03:08.188Z,1.00
2023-05-06T02:08:06.018Z,1.00
2023-05-06T02:10:36.883Z,1.00
2023-05-06T02:13:10.096Z,1.00
2023-05-06T02:18:12.868Z,1.00
2023-05-06T02:20:40.956Z,1.00
2023-05-06T02:23:16.197Z,1.00
2023-05-06T02:25:46.482Z,1.00
2023-05-06T02:28:15.810Z,1.00
2023-05-06T02:30:45.252Z,1.00
2023-05-06T02:33:13.453Z,1.00
2023-05-06T02:35:44.075Z,1.00
2023-05-06T02:38:13.558Z,1.00
2023-05-06T02:40:42.903Z,1.00
2023-05-06T02:43:12.580Z,1.00
2023-05-06T02:45:42.011Z,1.00
2023-05-06T02:48:10.268Z,1.00
2023-05-06T02:50:39.585Z,1.00
2023-05-06T02:53:08.877Z,1.00
2023-05-06T02:55:38.346Z,1.00
2023-05-06T02:58:07.670Z,1.00
2023-05-06T03:00:39.519Z,1.00
2023-05-06T03:03:08.904Z,1.00
2023-05-06T03:05:38.257Z,1.00
2023-05-06T03:08:08.892Z,1.00
2023-05-06T03:10:38.873Z,1.00
2023-05-06T03:13:08.338Z,1.00
2023-05-06T03:15:39.409Z,1.00
2023-05-06T03:18:10.351Z,1.00
2023-05-06T03:20:39.834Z,1.00
2023-05-06T03:23:09.141Z,1.00
2023-05-06T03:25:38.704Z,1.00
2023-05-06T03:30:41.369Z,1.00
2023-05-06T03:33:11.218Z,1.00
2023-05-06T03:35:40.974Z,1.00
2023-05-06T03:38:11.612Z,1.00
2023-05-06T03:40:52.454Z,1.00
2023-05-06T03:43:21.971Z,1.00
2023-05-06T03:45:55.495Z,1.00
2023-05-06T03:48:25.794Z,1.00
2023-05-06T03:50:54.744Z,1.00
2023-05-06T03:53:24.179Z,1.00
2023-05-06T03:55:53.439Z,1.00
2023-05-06T03:58:21.776Z,1.00
2023-05-06T04:00:53.705Z,1.00
2023-05-06T04:03:24.646Z,1.00
2023-05-06T04:05:53.574Z,1.00
2023-05-06T04:08:26.660Z,1.00
2023-05-06T04:10:57.051Z,1.00
2023-05-06T04:13:30.430Z,1.00
2023-05-06T04:16:01.333Z,1.00
2023-05-06T04:18:38.928Z,1.00
2023-05-06T04:21:12.091Z,1.00
2023-05-06T04:23:44.295Z,1.00
2023-05-06T04:26:17.242Z,1.00
2023-05-06T04:28:48.105Z,1.00
2023-05-06T04:31:17.908Z,1.00
2023-05-06T04:33:54.597Z,1.00
2023-05-06T04:36:27.979Z,1.00
2023-05-06T04:39:24.705Z,1.00
2023-05-06T04:41:54.403Z,1.00
2023-05-06T04:44:30.850Z,1.00
2023-05-06T04:49:32.142Z,1.00
2023-05-06T04:52:03.440Z,1.00
2023-05-06T04:54:34.185Z,1.00
2023-05-06T04:57:05.435Z,1.00
2023-05-06T04:59:34.761Z,1.00
2023-05-06T05:02:05.829Z,1.00
2023-05-06T05:04:35.362Z,1.00
2023-05-06T05:07:03.525Z,1.00
2023-05-06T05:12:03.794Z,1.00
2023-05-06T05:14:37.832Z,1.00
2023-05-06T05:19:38.139Z,1.00
2023-05-06T05:22:08.110Z,1.00
2023-05-06T05:24:36.316Z,1.00
2023-05-06T05:27:04.480Z,1.00
2023-05-06T05:29:33.858Z,1.00
2023-05-06T05:32:06.714Z,1.00
2023-05-06T05:34:36.836Z,1.00
2023-05-06T05:37:07.586Z,1.00
2023-05-06T05:39:35.933Z,1.00
2023-05-06T05:42:04.132Z,1.00
2023-05-06T05:47:05.854Z,1.00
2023-05-06T05:49:37.208Z,1.00
2023-05-06T05:52:08.699Z,1.00
2023-05-06T05:54:38.698Z,1.00
2023-05-06T05:57:08.485Z,1.00
2023-05-06T05:59:38.540Z,1.00
2023-05-06T06:02:08.796Z,1.00
2023-05-06T06:04:38.623Z,1.00
2023-05-06T06:07:08.164Z,1.00
2023-05-06T06:09:41.874Z,1.00
2023-05-06T06:12:11.409Z,1.00
2023-05-06T06:14:41.515Z,1.00
2023-05-06T06:17:11.012Z,1.00
2023-05-06T06:19:42.023Z,1.00
2023-05-06T06:22:10.379Z,1.00
2023-05-06T06:24:42.567Z,1.00
2023-05-06T06:27:10.964Z,1.00
2023-05-06T06:29:40.463Z,1.00
2023-05-06T06:34:40.805Z,1.00
2023-05-06T06:37:12.323Z,1.00
2023-05-06T06:39:43.424Z,1.00
2023-05-06T06:42:12.950Z,1.00
2023-05-06T06:44:50.643Z,1.00
2023-05-06T06:47:19.959Z,1.00
2023-05-06T06:49:50.660Z,1.00
2023-05-06T06:52:19.127Z,1.00
2023-05-06T06:54:47.341Z,1.00
2023-05-06T06:57:16.693Z,99.90
2023-05-06T06:59:44.786Z,99.90
2023-05-06T07:04:42.533Z,99.90
2023-05-06T07:07:12.094Z,99.90
2023-05-06T07:09:40.630Z,99.90
2023-05-06T07:12:10.003Z,99.90
2023-05-06T07:17:10.311Z,99.90
2023-05-06T07:19:39.645Z,90.80
2023-05-06T07:22:10.144Z,1.00
2023-05-06T07:24:40.802Z,1.00
2023-05-06T07:27:10.139Z,1.00
2023-05-06T07:29:39.693Z,1.00
2023-05-06T07:34:38.001Z,1.00
2023-05-06T07:37:08.003Z,1.00
2023-05-06T07:39:39.956Z,1.00
2023-05-06T07:42:12.939Z,1.00
2023-05-06T07:44:42.366Z,1.00
2023-05-06T07:47:11.824Z,99.90
2023-05-06T07:49:41.103Z,99.90
2023-05-06T07:52:10.453Z,99.90
2023-05-06T07:54:39.968Z,99.90
2023-05-06T08:02:10.120Z,99.90
2023-05-06T08:04:39.569Z,99.90
2023-05-06T08:07:08.926Z,99.90
2023-05-06T08:09:37.132Z,99.90
2023-05-06T08:12:08.506Z,99.90
2023-05-06T08:14:37.914Z,99.90
2023-05-06T08:17:07.200Z,99.90
2023-05-06T08:19:36.505Z,99.90
2023-05-06T08:22:05.825Z,90.80
2023-05-06T08:24:34.005Z,49.20
2023-05-06T08:27:02.228Z,40.60
2023-05-06T08:29:31.674Z,19.20
2023-05-06T08:32:03.186Z,3.80
2023-05-06T08:34:36.089Z,1.00
2023-05-06T08:39:35.199Z,1.00
2023-05-06T08:42:05.896Z,1.00
2023-05-06T08:44:38.771Z,1.00
2023-05-06T08:47:08.641Z,1.00
2023-05-06T08:49:40.939Z,1.00
2023-05-06T08:52:10.857Z,1.00
2023-05-06T08:54:41.930Z,1.00
2023-05-06T08:57:13.904Z,1.00
2023-05-06T08:59:46.436Z,1.00
2023-05-06T09:02:15.110Z,1.00
2023-05-06T09:04:45.609Z,1.00
2023-05-06T09:07:16.215Z,1.00
2023-05-06T09:09:45.796Z,1.00
2023-05-06T09:12:14.943Z,1.00
2023-05-06T09:14:46.596Z,1.00
2023-05-06T09:17:24.126Z,1.00
2023-05-06T09:19:53.727Z,1.00
2023-05-06T09:22:24.830Z,1.00
2023-05-06T09:24:56.855Z,1.00
2023-05-06T09:27:26.543Z,1.00
2023-05-06T09:30:07.214Z,1.00
2023-05-06T09:32:39.848Z,1.00
2023-05-06T09:35:12.916Z,1.00
2023-05-06T09:37:43.105Z,1.00
2023-05-06T09:40:15.203Z,1.00
2023-05-06T09:42:45.886Z,1.00
2023-05-06T09:45:18.031Z,1.00
2023-05-06T09:47:49.708Z,1.00
2023-05-06T09:50:22.299Z,1.00
2023-05-06T09:52:51.912Z,1.00
2023-05-06T09:55:23.501Z,1.00
2023-05-06T09:57:52.025Z,1.00
2023-05-06T10:00:28.308Z,1.00
2023-05-06T10:03:01.081Z,1.00
2023-05-06T10:05:31.892Z,1.00
2023-05-06T10:08:01.663Z,1.00
2023-05-06T10:10:31.981Z,1.00
2023-05-06T10:13:04.713Z,1.00
2023-05-06T10:15:35.399Z,1.00
2023-05-06T10:18:05.773Z,1.00
2023-05-06T10:20:37.202Z,1.00
2023-05-06T10:23:21.990Z,1.00
2023-05-06T10:25:55.123Z,1.00
2023-05-06T10:28:31.087Z,1.00
2023-05-06T10:31:03.391Z,1.00
2023-05-06T10:33:33.498Z,1.00
2023-05-06T10:36:17.705Z,1.00
2023-05-06T10:38:52.370Z,1.00
2023-05-06T10:41:23.427Z,1.00
2023-05-06T10:43:56.712Z,1.00
2023-05-06T10:46:29.905Z,1.00
2023-05-06T10:49:25.232Z,1.00
2023-05-06T10:52:21.196Z,1.00
2023-05-06T10:54:52.649Z,1.00
2023-05-06T10:57:26.517Z,1.00
2023-05-06T10:59:56.548Z,1.00
2023-05-06T11:02:26.408Z,1.00
2023-05-06T11:05:03.131Z,1.00
2023-05-06T11:07:32.071Z,1.00
2023-05-06T11:10:06.442Z,1.00
2023-05-06T11:12:50.785Z,1.00
2023-05-06T11:15:42.173Z,1.00
2023-05-06T11:18:46.363Z,1.00
2023-05-06T11:21:40.855Z,1.00
2023-05-06T11:24:14.114Z,1.00
2023-05-06T11:26:44.683Z,1.00
2023-05-06T11:29:17.834Z,1.00
2023-05-06T11:31:49.184Z,1.00
2023-05-06T11:34:27.929Z,1.00
2023-05-06T11:37:06.596Z,1.00
2023-05-06T11:39:40.776Z,1.00
2023-05-06T11:42:11.990Z,1.00
2023-05-06T11:44:41.052Z,1.00
2023-05-06T11:47:11.517Z,1.00
2023-05-06T11:49:44.109Z,1.00
2023-05-06T11:52:14.349Z,1.00
2023-05-06T11:54:44.185Z,1.00
2023-05-06T11:57:15.771Z,1.00
2023-05-06T11:59:45.227Z,1.00
2023-05-06T12:02:17.618Z,1.00
2023-05-06T12:04:50.292Z,1.00
2023-05-06T12:07:19.001Z,1.00
2023-05-06T12:09:50.639Z,1.00
2023-05-06T12:12:23.260Z,1.00
2023-05-06T12:14:54.694Z,1.00
2023-05-06T12:17:23.856Z,1.00
2023-05-06T12:19:54.976Z,1.00
2023-05-06T12:22:25.652Z,1.00
2023-05-06T12:24:55.333Z,1.00
2023-05-06T12:27:32.432Z,1.00
2023-05-06T12:30:04.478Z,1.00
2023-05-06T12:32:34.412Z,1.00
2023-05-06T12:35:07.434Z,1.00
2023-05-06T12:37:38.168Z,1.00
2023-05-06T12:40:17.097Z,1.00
2023-05-06T12:42:46.776Z,1.00
2023-05-06T12:45:15.901Z,1.00
2023-05-06T12:47:56.453Z,1.00
2023-05-06T12:50:37.909Z,1.00
2023-05-06T12:53:10.914Z,1.00
2023-05-06T12:55:42.465Z,1.00
2023-05-06T12:58:18.423Z,1.00
2023-05-06T13:00:49.298Z,1.00
2023-05-06T13:03:19.389Z,1.00
2023-05-06T13:05:52.996Z,1.00
2023-05-06T13:08:21.169Z,1.00
2023-05-06T13:10:50.793Z,1.00
2023-05-06T13:13:19.140Z,1.00
2023-05-06T13:15:48.846Z,1.00
2023-05-06T13:18:17.207Z,1.00
2023-05-06T13:20:45.967Z,1.00
2023-05-06T13:23:15.937Z,1.00
2023-05-06T13:26:00.392Z,1.00
2023-05-06T13:28:37.838Z,1.00
2023-05-06T13:31:09.162Z,1.00
2023-05-06T13:33:38.734Z,1.00
2023-05-06T13:36:08.986Z,1.00
2023-05-06T13:38:39.926Z,1.00
2023-05-06T13:41:08.931Z,1.00
2023-05-06T13:43:37.596Z,1.00
2023-05-06T13:48:36.100Z,1.00
2023-05-06T13:51:04.694Z,1.00
2023-05-06T13:53:32.926Z,1.00
2023-05-06T13:56:02.540Z,1.00
2023-05-06T13:58:32.382Z,1.00
2023-05-06T14:01:01.834Z,1.00
2023-05-06T14:03:32.629Z,1.00
2023-05-06T14:06:03.525Z,1.00
2023-05-06T14:08:32.762Z,1.00
2023-05-06T14:11:05.017Z,1.00
2023-05-06T14:13:35.277Z,1.00
2023-05-06T14:16:04.895Z,1.00
2023-05-06T14:18:34.875Z,1.00
2023-05-06T14:21:03.612Z,1.00
2023-05-06T14:23:32.495Z,1.00
2023-05-06T14:26:04.852Z,1.00
2023-05-06T14:28:32.983Z,1.00
2023-05-06T14:31:02.394Z,1.00
2023-05-06T14:33:31.765Z,1.00
2023-05-06T14:36:04.433Z,1.00
2023-05-06T14:38:34.229Z,1.00
2023-05-06T14:41:05.142Z,1.00
2023-05-06T14:43:33.393Z,1.00
2023-05-06T14:46:03.172Z,1.00
2023-05-06T14:48:33.990Z,1.00
2023-05-06T14:51:02.404Z,1.00
2023-05-06T14:53:31.885Z,1.00
2023-05-06T14:56:04.526Z,1.00
2023-05-06T14:58:37.264Z,1.00
2023-05-06T15:01:05.955Z,1.00
2023-05-06T15:03:36.324Z,1.00
2023-05-06T15:06:05.468Z,1.00
2023-05-06T15:08:37.402Z,1.00
2023-05-06T15:11:06.028Z,1.00
2023-05-06T15:13:35.591Z,1.00
2023-05-06T15:16:05.065Z,1.00
2023-05-06T15:18:33.218Z,1.00
2023-05-06T15:21:02.705Z,1.00
2023-05-06T15:23:32.048Z,1.00
2023-05-06T15:26:01.652Z,1.00
2023-05-06T15:28:30.213Z,1.00
2023-05-06T15:30:59.963Z,1.00
2023-05-06T15:33:29.499Z,1.00
2023-05-06T15:36:00.231Z,1.00
2023-05-06T15:38:28.653Z,1.00
2023-05-06T15:40:56.906Z,1.00
2023-05-06T15:43:36.054Z,1.00
2023-05-06T15:46:09.598Z,1.00
2023-05-06T15:48:39.052Z,1.00
2023-05-06T15:51:08.620Z,1.00
2023-05-06T15:53:40.575Z,1.00
2023-05-06T15:56:18.212Z,1.00
2023-05-06T15:58:48.528Z,1.00
2023-05-06T16:01:25.371Z,1.00
2023-05-06T16:04:08.091Z,1.00
2023-05-06T16:06:37.837Z,1.00
2023-05-06T16:09:07.485Z,1.00
2023-05-06T16:14:05.719Z,1.00
2023-05-06T16:16:38.071Z,1.00
2023-05-06T16:19:08.472Z,1.00
2023-05-06T16:21:39.104Z,1.00
2023-05-06T16:24:08.962Z,1.00
2023-05-06T16:26:39.111Z,1.00
2023-05-06T16:29:07.745Z,1.00
2023-05-06T16:31:39.024Z,1.00
2023-05-06T16:34:08.550Z,1.00
2023-05-06T16:36:39.171Z,1.00
2023-05-06T16:39:08.090Z,1.00
2023-05-06T16:41:38.780Z,1.00
2023-05-06T16:44:08.121Z,1.00
2023-05-06T16:46:39.285Z,1.00
2023-05-06T16:49:07.543Z,1.00
2023-05-06T16:51:36.202Z,1.00
2023-05-06T16:54:07.234Z,1.00
2023-05-06T16:56:50.874Z,1.00
2023-05-06T17:01:54.884Z,1.00
2023-05-06T17:04:27.153Z,1.00
2023-05-06T17:06:55.963Z,1.00
2023-05-06T17:09:25.468Z,1.00
2023-05-06T17:11:53.680Z,1.00
2023-05-06T17:14:23.631Z,1.00
2023-05-06T17:16:54.464Z,1.00
2023-05-06T17:19:25.219Z,1.00
2023-05-06T17:21:54.693Z,1.00
2023-05-06T17:24:25.283Z,1.00
2023-05-06T17:26:53.685Z,1.00
2023-05-06T17:29:23.359Z,1.00
2023-05-06T17:36:55.969Z,1.00
2023-05-06T17:39:26.521Z,1.00
2023-05-06T17:41:55.839Z,1.00
2023-05-06T17:44:25.312Z,1.00
2023-05-06T17:46:56.180Z,1.00
2023-05-06T17:49:24.427Z,1.00
2023-05-06T17:51:52.676Z,1.00
2023-05-06T17:59:26.253Z,1.00
2023-05-06T18:01:59.318Z,1.00
2023-05-06T18:04:28.947Z,1.00
2023-05-06T18:06:58.335Z,1.00
2023-05-06T18:09:27.774Z,1.00
2023-05-06T18:11:55.996Z,1.00
2023-05-06T18:14:25.418Z,1.00
2023-05-06T18:19:26.327Z,1.00
2023-05-06T18:26:54.390Z,1.00
2023-05-06T18:29:24.974Z,1.00
2023-05-06T18:31:56.082Z,1.00
2023-05-06T18:34:27.050Z,1.00
2023-05-06T18:36:59.083Z,1.00
2023-05-06T18:39:28.395Z,1.00
2023-05-06T18:41:58.918Z,1.00
2023-05-06T18:44:28.577Z,1.00
2023-05-06T18:46:56.935Z,1.00
2023-05-06T18:49:27.433Z,1.00
2023-05-06T18:51:58.520Z,1.00
2023-05-06T18:54:28.181Z,1.00
2023-05-06T18:56:58.690Z,1.00
2023-05-06T18:59:27.571Z,1.00
2023-05-06T19:01:58.092Z,1.00
2023-05-06T19:04:29.025Z,1.00
2023-05-06T19:06:57.293Z,1.00
2023-05-06T19:09:27.877Z,1.00
2023-05-06T19:11:57.228Z,1.00
2023-05-06T19:14:27.994Z,1.00
2023-05-06T19:19:29.174Z,1.00
2023-05-06T19:21:59.118Z,1.00
2023-05-06T19:24:29.025Z,1.00
2023-05-06T19:26:57.312Z,1.00
2023-05-06T19:29:27.069Z,1.00
2023-05-06T19:31:55.577Z,1.00
2023-05-06T19:34:25.083Z,1.00
2023-05-06T19:36:57.323Z,1.00
2023-05-06T19:39:27.929Z,1.00
2023-05-06T19:41:57.790Z,1.00
2023-05-06T19:44:28.375Z,1.00
2023-05-06T19:46:57.777Z,1.00
2023-05-06T19:49:27.372Z,1.00
2023-05-06T19:51:59.419Z,1.00
2023-05-06T19:54:28.016Z,1.00
2023-05-06T19:56:57.485Z,1.00
2023-05-06T19:59:26.988Z,1.00
2023-05-06T20:04:31.410Z,1.00
2023-05-06T20:07:02.198Z,1.00
2023-05-06T20:09:30.573Z,1.00
2023-05-06T20:11:58.650Z,1.00
2023-05-06T20:14:27.128Z,1.00
2023-05-06T20:16:57.698Z,1.00
2023-05-06T20:19:29.470Z,1.00
2023-05-06T20:22:00.704Z,1.00
2023-05-06T20:24:32.058Z,1.00
2023-05-06T20:32:02.923Z,1.00
2023-05-06T20:34:32.620Z,1.00
2023-05-06T20:37:02.368Z,1.00
2023-05-06T20:39:31.660Z,1.00
2023-05-06T20:41:59.950Z,1.00
2023-05-06T20:44:29.561Z,1.00
2023-05-06T20:46:57.616Z,1.00
2023-05-06T20:49:25.818Z,1.00
2023-05-06T20:51:54.021Z,1.00
2023-05-06T20:54:23.695Z,1.00
2023-05-06T20:56:53.185Z,9.50
2023-05-06T20:59:23.000Z,23.60
2023-05-06T21:01:53.965Z,42.50
2023-05-06T21:04:23.614Z,71.20
2023-05-06T21:06:54.188Z,96.30
2023-05-06T21:09:23.696Z,92.30
2023-05-06T21:11:53.016Z,99.90
2023-05-06T21:14:21.171Z,99.90
2023-05-06T21:16:50.548Z,99.90
2023-05-06T21:19:20.620Z,99.90
2023-05-06T21:21:48.757Z,99.90
2023-05-06T21:26:49.109Z,99.90
2023-05-06T21:29:18.369Z,99.90
2023-05-06T21:31:46.511Z,99.90
2023-05-06T21:34:14.747Z,99.90
2023-05-06T21:36:42.837Z,99.90
2023-05-06T21:39:15.930Z,99.90
2023-05-06T21:41:45.491Z,99.90
2023-05-06T21:44:15.972Z,99.90
2023-05-06T21:46:45.478Z,99.90
2023-05-06T21:49:16.046Z,99.90
2023-05-06T21:51:44.202Z,99.90
2023-05-06T21:54:14.716Z,99.90
2023-05-06T21:56:42.778Z,99.90
2023-05-06T21:59:12.335Z,99.90
2023-05-06T22:01:44.373Z,99.90
2023-05-06T22:04:14.912Z,99.90
2023-05-06T22:06:44.314Z,99.90
2023-05-06T22:09:13.649Z,99.90
2023-05-06T22:11:41.909Z,99.90
2023-05-06T22:14:11.185Z,99.90
2023-05-06T22:16:44.027Z,99.90
2023-05-06T22:19:13.036Z,99.90
2023-05-06T22:21:42.594Z,99.90
2023-05-06T22:24:10.772Z,99.90
2023-05-06T22:26:40.230Z,99.90
2023-05-06T22:29:09.524Z,99.90
2023-05-06T22:31:38.987Z,99.90
2023-05-06T22:34:08.679Z,99.90
2023-05-06T22:39:10.332Z,99.90
2023-05-06T22:41:41.460Z,99.90
2023-05-06T22:44:09.632Z,99.90
2023-05-06T22:46:38.932Z,91.90
2023-05-06T22:49:09.690Z,86.80
2023-05-06T22:51:39.257Z,67.50
2023-05-06T22:54:07.238Z,29.60
2023-05-06T22:56:35.700Z,47.80
2023-05-06T23:01:34.906Z,33.30
2023-05-06T23:04:05.698Z,27.50
2023-05-06T23:06:36.647Z,25.80
2023-05-06T23:09:06.661Z,25.20
2023-05-06T23:11:37.198Z,24.90
2023-05-06T23:14:07.477Z,23.20
2023-05-06T23:16:37.057Z,25.80
2023-05-06T23:19:06.652Z,19.70
2023-05-06T23:21:37.209Z,1.00
2023-05-06T23:24:07.124Z,2.30
2023-05-06T23:26:37.821Z,27.10
2023-05-06T23:29:07.424Z,27.10
2023-05-06T23:31:36.570Z,1.00
2023-05-06T23:34:04.876Z,27.70
2023-05-06T23:36:37.929Z,27.80
2023-05-06T23:39:06.055Z,28.40
2023-05-06T23:41:36.628Z,26.80
2023-05-06T23:44:05.260Z,30.30
2023-05-06T23:49:05.873Z,34.40
2023-05-06T23:51:34.034Z,44.00
2023-05-06T23:54:04.837Z,48.20
2023-05-06T23:56:33.133Z,21.40
